createdAt,value
2018-04-11T00:00:47.228Z,15.23
2018-04-11T00:03:14.689Z,15.22
2018-04-11T00:05:42.148Z,15.18
2018-04-11T00:08:09.680Z,15.12
2018-04-11T00:10:37.153Z,15.06
2018-04-11T00:13:04.712Z,14.99
2018-04-11T00:15:32.204Z,14.94
2018-04-11T00:17:59.678Z,14.90
2018-04-11T00:20:27.137Z,14.85
2018-04-11T00:22:54.617Z,14.81
2018-04-11T00:25:22.163Z,14.77
2018-04-11T00:27:49.627Z,14.77
2018-04-11T00:30:17.122Z,14.73
2018-04-11T00:32:44.595Z,14.69
2018-04-11T00:35:12.100Z,14.63
2018-04-11T00:37:39.567Z,14.60
2018-04-11T00:40:07.034Z,14.54
2018-04-11T00:42:34.545Z,14.51
2018-04-11T00:45:02.073Z,14.46
2018-04-11T00:47:29.555Z,14.45
2018-04-11T00:49:57.050Z,14.45
2018-04-11T00:52:24.524Z,14.45
2018-04-11T00:54:52.012Z,14.45
2018-04-11T00:57:19.508Z,14.50
2018-04-11T00:59:47.011Z,14.54
2018-04-11T01:02:14.465Z,14.54
2018-04-11T01:04:41.959Z,14.55
2018-04-11T01:07:09.430Z,14.55
2018-04-11T01:09:36.945Z,14.55
2018-04-11T01:12:04.551Z,14.56
2018-04-11T01:14:32.016Z,14.55
2018-04-11T01:16:59.502Z,14.53
2018-04-11T01:19:27.097Z,14.47
2018-04-11T01:21:54.560Z,14.46
2018-04-11T01:24:22.201Z,14.41
2018-04-11T01:26:49.673Z,14.38
2018-04-11T01:29:17.140Z,14.34
2018-04-11T01:31:44.711Z,14.33
2018-04-11T01:34:12.169Z,14.32
2018-04-11T01:36:39.685Z,14.30
2018-04-11T01:39:07.296Z,14.28
2018-04-11T01:41:34.773Z,14.26
2018-04-11T01:44:02.250Z,14.25
2018-04-11T01:46:29.729Z,14.23
2018-04-11T01:48:57.188Z,14.18
2018-04-11T01:51:24.688Z,14.13
2018-04-11T01:53:52.202Z,14.07
2018-04-11T01:56:19.698Z,14.05
2018-04-11T01:58:47.188Z,14.01
2018-04-11T02:01:14.672Z,13.99
2018-04-11T02:03:42.128Z,13.98
2018-04-11T02:06:09.603Z,13.97
2018-04-11T02:08:37.093Z,13.94
2018-04-11T02:11:04.558Z,13.92
2018-04-11T02:13:32.030Z,13.89
2018-04-11T02:15:59.524Z,13.84
2018-04-11T02:18:26.991Z,13.81
2018-04-11T02:20:54.465Z,13.77
2018-04-11T02:23:21.955Z,13.76
2018-04-11T02:25:49.429Z,13.72
2018-04-11T02:28:16.901Z,13.70
2018-04-11T02:30:44.405Z,13.66
2018-04-11T02:33:11.881Z,13.61
2018-04-11T02:35:39.344Z,13.59
2018-04-11T02:38:06.832Z,13.56
2018-04-11T02:40:34.300Z,13.56
2018-04-11T02:43:01.776Z,13.52
2018-04-11T02:45:29.270Z,13.48
2018-04-11T02:47:56.733Z,13.47
2018-04-11T02:50:24.227Z,13.46
2018-04-11T02:52:51.736Z,13.40
2018-04-11T02:55:19.237Z,13.36
2018-04-11T02:57:46.706Z,13.33
2018-04-11T03:00:14.193Z,13.30
2018-04-11T03:02:41.706Z,13.28
2018-04-11T03:05:09.269Z,13.25
2018-04-11T03:07:36.746Z,13.21
2018-04-11T03:10:04.287Z,13.18
2018-04-11T03:12:31.767Z,13.11
2018-04-11T03:14:59.237Z,12.99
2018-04-11T03:17:26.727Z,12.91
2018-04-11T03:19:54.210Z,12.88
2018-04-11T03:22:21.772Z,12.86
2018-04-11T03:24:49.266Z,12.84
2018-04-11T03:27:16.747Z,12.82
2018-04-11T03:29:44.245Z,12.79
2018-04-11T03:32:11.745Z,12.76
2018-04-11T03:34:39.226Z,12.74
2018-04-11T03:37:06.695Z,12.69
2018-04-11T03:39:34.192Z,12.63
2018-04-11T03:42:01.662Z,12.59
2018-04-11T03:44:29.183Z,12.60
2018-04-11T03:46:56.677Z,12.59
2018-04-11T03:49:24.198Z,12.60
2018-04-11T03:51:51.672Z,12.61
2018-04-11T03:54:19.140Z,12.50
2018-04-11T03:56:46.677Z,12.49
2018-04-11T03:59:14.170Z,12.47
2018-04-11T04:01:41.713Z,12.47
2018-04-11T04:04:09.185Z,12.47
2018-04-11T04:06:36.681Z,12.44
2018-04-11T04:09:04.141Z,12.47
2018-04-11T04:11:31.628Z,12.48
2018-04-11T04:14:10.969Z,12.51
2018-04-11T04:16:50.452Z,12.48
2018-04-11T04:19:29.829Z,12.46
2018-04-11T04:21:57.296Z,12.44
2018-04-11T04:24:24.780Z,12.41
2018-04-11T04:26:52.360Z,12.39
2018-04-11T04:29:19.839Z,12.36
2018-04-11T04:31:47.309Z,12.36
2018-04-11T04:34:14.792Z,12.36
2018-04-11T04:36:42.280Z,12.35
2018-04-11T04:39:09.753Z,12.34
2018-04-11T04:41:37.252Z,12.35
2018-04-11T04:44:04.708Z,12.36
2018-04-11T04:46:32.177Z,12.37
2018-04-11T04:48:59.674Z,12.36
2018-04-11T04:51:27.149Z,12.39
2018-04-11T04:53:54.643Z,12.41
2018-04-11T04:56:22.128Z,12.42
2018-04-11T04:58:49.600Z,12.43
2018-04-11T05:01:17.093Z,12.45
2018-04-11T05:03:44.721Z,12.44
2018-04-11T05:06:12.212Z,12.45
2018-04-11T05:08:39.685Z,12.42
2018-04-11T05:11:07.141Z,12.45
2018-04-11T05:13:34.728Z,12.46
2018-04-11T05:16:02.190Z,12.49
2018-04-11T05:18:29.765Z,12.51
2018-04-11T05:20:57.257Z,12.52
2018-04-11T05:23:24.734Z,12.53
2018-04-11T05:25:52.212Z,12.52
2018-04-11T05:28:19.696Z,12.52
2018-04-11T05:30:47.190Z,12.56
2018-04-11T05:33:14.661Z,12.56
2018-04-11T05:35:42.148Z,12.56
2018-04-11T05:38:09.704Z,12.53
2018-04-11T05:40:37.176Z,12.51
2018-04-11T05:43:04.688Z,12.29
2018-04-11T05:45:32.276Z,12.16
2018-04-11T05:47:59.764Z,12.13
2018-04-11T05:50:27.336Z,12.24
2018-04-11T05:52:54.809Z,12.31
2018-04-11T05:55:22.361Z,12.48
2018-04-11T05:57:49.852Z,12.63
2018-04-11T06:00:17.328Z,12.89
2018-04-11T06:02:44.797Z,13.04
2018-04-11T06:05:12.307Z,13.17
2018-04-11T06:07:39.768Z,13.25
2018-04-11T06:10:07.267Z,13.28
2018-04-11T06:12:34.768Z,13.32
2018-04-11T06:15:02.242Z,13.32
2018-04-11T06:17:29.715Z,13.35
2018-04-11T06:19:57.299Z,13.35
2018-04-11T06:22:24.797Z,13.26
2018-04-11T06:24:52.266Z,13.29
2018-04-11T06:27:19.745Z,13.33
2018-04-11T06:29:47.238Z,13.24
2018-04-11T06:32:14.748Z,13.25
2018-04-11T06:34:42.242Z,13.23
2018-04-11T06:37:09.721Z,13.33
2018-04-11T06:39:37.268Z,13.42
2018-04-11T06:42:04.876Z,13.46
2018-04-11T06:44:32.356Z,13.53
2018-04-11T06:46:59.837Z,13.68
2018-04-11T06:49:27.345Z,13.93
2018-04-11T06:51:54.893Z,13.99
2018-04-11T06:54:22.360Z,14.08
2018-04-11T06:56:49.820Z,14.02
2018-04-11T06:59:17.304Z,13.86
2018-04-11T07:01:44.765Z,14.00
2018-04-11T07:04:12.220Z,14.11
2018-04-11T07:06:39.813Z,14.17
2018-04-11T07:09:07.273Z,14.20
2018-04-11T07:11:34.768Z,14.32
2018-04-11T07:14:02.251Z,14.41
2018-04-11T07:16:29.729Z,14.44
2018-04-11T07:18:57.243Z,14.66
2018-04-11T07:21:24.723Z,14.61
2018-04-11T07:23:52.204Z,14.61
2018-04-11T07:26:19.865Z,14.54
2018-04-11T07:28:47.329Z,14.56
2018-04-11T07:31:14.787Z,14.69
2018-04-11T07:33:42.361Z,14.77
2018-04-11T07:36:09.876Z,14.78
2018-04-11T07:38:37.357Z,15.05
2018-04-11T07:41:04.824Z,15.30
2018-04-11T07:43:32.304Z,15.33
2018-04-11T07:46:00.682Z,15.64
2018-04-11T07:48:28.186Z,15.59
2018-04-11T07:50:55.705Z,15.79
2018-04-11T07:53:23.190Z,15.98
2018-04-11T07:55:50.683Z,16.19
2018-04-11T07:58:18.166Z,15.76
2018-04-11T08:00:45.635Z,15.68
2018-04-11T08:03:13.131Z,16.00
2018-04-11T08:05:40.584Z,16.35
2018-04-11T08:08:08.058Z,16.58
2018-04-11T08:10:35.629Z,16.83
2018-04-11T08:13:03.104Z,16.61
2018-04-11T08:15:30.571Z,16.80
2018-04-11T08:17:58.096Z,16.98
2018-04-11T08:20:25.555Z,16.83
2018-04-11T08:22:53.078Z,16.55
2018-04-11T08:25:20.580Z,16.49
2018-04-11T08:27:48.105Z,16.48
2018-04-11T08:30:15.589Z,16.47
2018-04-11T08:32:43.053Z,16.54
2018-04-11T08:35:10.612Z,16.56
2018-04-11T08:37:38.091Z,16.66
2018-04-11T08:40:05.678Z,16.79
2018-04-11T08:42:33.234Z,16.66
2018-04-11T08:45:00.708Z,16.73
2018-04-11T08:47:28.190Z,16.95
2018-04-11T08:49:55.764Z,17.07
2018-04-11T08:52:23.230Z,16.94
2018-04-11T08:54:50.706Z,16.98
2018-04-11T08:57:18.256Z,17.14
2018-04-11T08:59:45.722Z,17.54
2018-04-11T09:02:13.213Z,17.74
2018-04-11T09:04:40.719Z,17.77
2018-04-11T09:07:08.231Z,17.49
2018-04-11T09:09:35.742Z,17.61
2018-04-11T09:12:03.216Z,18.01
2018-04-11T09:14:30.694Z,18.06
2018-04-11T09:16:58.197Z,17.59
2018-04-11T09:19:25.665Z,17.78
2018-04-11T09:21:53.237Z,18.27
2018-04-11T09:24:20.746Z,18.67
2018-04-11T09:26:48.218Z,18.74
2018-04-11T09:29:15.700Z,18.63
2018-04-11T09:31:43.189Z,18.22
2018-04-11T09:34:10.700Z,17.93
2018-04-11T09:36:38.734Z,17.82
2018-04-11T09:39:06.225Z,17.85
2018-04-11T09:41:33.688Z,17.88
2018-04-11T09:44:01.168Z,18.07
2018-04-11T09:46:28.659Z,18.24
2018-04-11T09:48:56.122Z,18.56
2018-04-11T09:51:23.753Z,18.79
2018-04-11T09:53:51.226Z,18.97
2018-04-11T09:56:18.696Z,19.03
2018-04-11T09:58:46.260Z,18.75
2018-04-11T10:01:18.771Z,18.73
2018-04-11T10:03:46.248Z,18.42
2018-04-11T10:06:13.844Z,18.45
2018-04-11T10:08:42.194Z,18.60
2018-04-11T10:11:09.661Z,19.03
2018-04-11T10:13:37.191Z,19.30
2018-04-11T10:16:04.767Z,18.88
2018-04-11T10:18:32.252Z,18.38
2018-04-11T10:20:59.744Z,18.49
2018-04-11T10:23:27.256Z,19.06
2018-04-11T10:25:54.724Z,19.46
2018-04-11T10:28:22.299Z,19.46
2018-04-11T10:30:49.756Z,19.34
2018-04-11T10:33:17.223Z,19.49
2018-04-11T10:35:44.721Z,19.64
2018-04-11T10:38:12.222Z,19.43
2018-04-11T10:40:39.741Z,19.42
2018-04-11T10:43:07.296Z,19.63
2018-04-11T10:45:34.848Z,19.65
2018-04-11T10:48:02.310Z,19.82
2018-04-11T10:50:29.777Z,19.87
2018-04-11T10:52:57.328Z,19.52
2018-04-11T10:55:24.800Z,19.59
2018-04-11T10:57:52.296Z,20.25
2018-04-11T11:00:19.774Z,20.47
2018-04-11T11:02:47.264Z,20.41
2018-04-11T11:05:14.766Z,19.78
2018-04-11T11:07:42.288Z,19.83
2018-04-11T11:10:09.747Z,19.84
2018-04-11T11:12:37.249Z,19.34
2018-04-11T11:15:04.793Z,19.37
2018-04-11T11:17:32.272Z,19.55
2018-04-11T11:20:01.598Z,20.14
2018-04-11T11:22:29.134Z,20.20
2018-04-11T11:24:56.624Z,20.00
2018-04-11T11:27:24.118Z,20.00
2018-04-11T11:29:51.592Z,19.77
2018-04-11T11:32:19.209Z,19.52
2018-04-11T11:34:46.721Z,19.44
2018-04-11T11:37:14.369Z,19.04
2018-04-11T11:39:41.881Z,18.59
2018-04-11T11:42:09.456Z,18.72
2018-04-11T11:44:36.917Z,19.04
2018-04-11T11:47:04.409Z,19.19
2018-04-11T11:49:31.950Z,19.19
2018-04-11T11:51:59.442Z,19.16
2018-04-11T11:54:26.970Z,19.02
2018-04-11T11:56:54.472Z,19.14
2018-04-11T11:59:21.945Z,19.19
2018-04-11T12:01:49.438Z,19.17
2018-04-11T12:04:16.913Z,18.94
2018-04-11T12:06:44.402Z,18.96
2018-04-11T12:09:11.951Z,18.98
2018-04-11T12:11:39.492Z,18.92
2018-04-11T12:14:07.020Z,18.98
2018-04-11T12:16:34.493Z,19.11
2018-04-11T12:19:01.961Z,19.34
2018-04-11T12:21:29.506Z,19.51
2018-04-11T12:23:57.102Z,19.68
2018-04-11T12:26:24.613Z,19.55
2018-04-11T12:28:52.115Z,19.44
2018-04-11T12:31:19.585Z,19.42
2018-04-11T12:33:47.103Z,19.42
2018-04-11T12:36:14.599Z,19.28
2018-04-11T12:38:42.066Z,19.20
2018-04-11T12:41:09.611Z,19.38
2018-04-11T12:43:37.135Z,19.79
2018-04-11T12:46:04.628Z,19.75
2018-04-11T12:48:32.141Z,19.37
2018-04-11T12:50:59.600Z,19.63
2018-04-11T12:53:27.077Z,19.55
2018-04-11T12:55:54.589Z,19.35
2018-04-11T12:58:22.088Z,19.27
2018-04-11T13:00:49.552Z,19.06
2018-04-11T13:03:17.044Z,19.11
2018-04-11T13:05:44.539Z,19.22
2018-04-11T13:08:12.035Z,19.23
2018-04-11T13:10:39.580Z,19.49
2018-04-11T13:13:07.137Z,19.26
2018-04-11T13:15:34.661Z,19.19
2018-04-11T13:18:02.122Z,19.44
2018-04-11T13:20:29.751Z,19.75
2018-04-11T13:22:57.260Z,20.14
2018-04-11T13:25:24.762Z,19.94
2018-04-11T13:27:52.289Z,19.71
2018-04-11T13:30:19.781Z,19.44
2018-04-11T13:32:47.245Z,19.34
2018-04-11T13:35:14.750Z,19.44
2018-04-11T13:37:42.234Z,19.44
2018-04-11T13:40:09.809Z,19.40
2018-04-11T13:42:37.369Z,19.35
2018-04-11T13:45:04.888Z,19.15
2018-04-11T13:47:32.369Z,19.08
2018-04-11T13:49:59.873Z,18.94
2018-04-11T13:52:27.336Z,18.91
2018-04-11T13:54:54.848Z,19.02
2018-04-11T13:57:22.341Z,19.15
2018-04-11T13:59:49.856Z,19.38
2018-04-11T14:02:17.333Z,19.39
2018-04-11T14:04:44.796Z,19.23
2018-04-11T14:07:12.351Z,19.19
2018-04-11T14:09:39.819Z,19.02
2018-04-11T14:12:07.296Z,18.88
2018-04-11T14:14:34.770Z,18.70
2018-04-11T14:17:02.245Z,18.58
2018-04-11T14:19:29.741Z,18.77
2018-04-11T14:21:57.204Z,18.84
2018-04-11T14:24:24.691Z,19.10
2018-04-11T14:26:52.157Z,19.12
2018-04-11T14:29:19.633Z,18.85
2018-04-11T14:31:47.124Z,19.06
2018-04-11T14:34:14.606Z,19.29
2018-04-11T14:36:42.081Z,18.94
2018-04-11T14:39:09.552Z,18.86
2018-04-11T14:41:37.065Z,18.81
2018-04-11T14:44:04.530Z,18.74
2018-04-11T14:46:32.028Z,18.84
2018-04-11T14:48:59.574Z,19.07
2018-04-11T14:51:27.085Z,18.90
2018-04-11T14:53:54.614Z,18.65
2018-04-11T14:56:22.165Z,18.46
2018-04-11T14:58:49.664Z,18.40
2018-04-11T15:01:17.170Z,18.56
2018-04-11T15:03:44.786Z,18.80
2018-04-11T15:06:12.308Z,18.70
2018-04-11T15:08:39.794Z,18.68
2018-04-11T15:11:07.258Z,18.88
2018-04-11T15:13:34.753Z,19.17
2018-04-11T15:16:02.229Z,19.20
2018-04-11T15:18:29.791Z,19.21
2018-04-11T15:20:57.301Z,18.87
2018-04-11T15:23:24.780Z,18.55
2018-04-11T15:25:52.364Z,18.47
2018-04-11T15:28:19.857Z,18.47
2018-04-11T15:30:47.317Z,18.47
2018-04-11T15:33:14.849Z,18.59
2018-04-11T15:35:42.408Z,18.44
2018-04-11T15:38:09.889Z,18.28
2018-04-11T15:40:37.359Z,18.29
2018-04-11T15:43:04.845Z,18.99
2018-04-11T15:45:32.340Z,19.52
2018-04-11T15:47:59.820Z,20.02
2018-04-11T15:50:28.532Z,20.48
2018-04-11T15:52:56.079Z,21.03
2018-04-11T15:55:23.648Z,21.55
2018-04-11T15:57:51.134Z,22.06
2018-04-11T16:00:18.607Z,22.09
2018-04-11T16:02:46.069Z,21.73
2018-04-11T16:05:13.580Z,21.15
2018-04-11T16:07:41.136Z,20.99
2018-04-11T16:10:08.680Z,20.51
2018-04-11T16:12:36.306Z,19.69
2018-04-11T16:15:03.785Z,18.81
2018-04-11T16:17:31.271Z,18.31
2018-04-11T16:19:58.780Z,18.32
2018-04-11T16:22:26.281Z,18.39
2018-04-11T16:24:53.795Z,18.18
2018-04-11T16:27:21.273Z,18.42
2018-04-11T16:29:48.839Z,18.14
2018-04-11T16:32:16.369Z,17.88
2018-04-11T16:34:43.840Z,17.89
2018-04-11T16:37:11.304Z,17.85
2018-04-11T16:39:38.881Z,17.62
2018-04-11T16:42:06.370Z,17.45
2018-04-11T16:44:33.842Z,17.49
2018-04-11T16:47:01.341Z,17.76
2018-04-11T16:49:28.929Z,17.68
2018-04-11T16:51:56.409Z,17.28
2018-04-11T16:54:23.911Z,16.95
2018-04-11T16:56:51.504Z,16.82
2018-04-11T16:59:19.007Z,16.74
2018-04-11T17:01:46.525Z,16.54
2018-04-11T17:04:14.049Z,16.39
2018-04-11T17:06:41.600Z,16.28
2018-04-11T17:09:09.162Z,16.13
2018-04-11T17:11:36.626Z,16.04
2018-04-11T17:14:04.089Z,15.93
2018-04-11T17:16:31.581Z,15.90
2018-04-11T17:18:59.052Z,15.90
2018-04-11T17:21:38.336Z,15.89
2018-04-11T17:24:17.640Z,15.86
2018-04-11T17:26:56.980Z,15.78
2018-04-11T17:29:36.457Z,15.61
2018-04-11T17:32:03.954Z,15.46
2018-04-11T17:34:31.449Z,15.38
2018-04-11T17:36:58.950Z,15.34
2018-04-11T17:39:26.465Z,15.30
2018-04-11T17:41:54.034Z,15.29
2018-04-11T17:44:21.496Z,15.29
2018-04-11T17:46:48.993Z,15.30
2018-04-11T17:49:16.465Z,15.29
2018-04-11T17:51:43.930Z,15.21
2018-04-11T17:54:11.441Z,15.09
2018-04-11T17:56:38.910Z,15.04
2018-04-11T17:59:06.383Z,14.99
2018-04-11T18:01:33.990Z,14.97
2018-04-11T18:04:01.459Z,14.98
2018-04-11T18:06:28.919Z,14.95
2018-04-11T18:08:56.495Z,14.89
2018-04-11T18:11:23.972Z,14.85
2018-04-11T18:13:51.439Z,14.80
2018-04-11T18:16:18.965Z,14.79
2018-04-11T18:18:46.446Z,14.79
2018-04-11T18:21:13.907Z,14.79
2018-04-11T18:23:41.430Z,14.71
2018-04-11T18:26:08.899Z,14.69
2018-04-11T18:28:36.441Z,14.71
2018-04-11T18:31:03.946Z,14.68
2018-04-11T18:33:31.430Z,14.67
2018-04-11T18:35:58.900Z,14.67
2018-04-11T18:38:26.421Z,14.62
2018-04-11T18:40:53.928Z,14.59
2018-04-11T18:43:21.418Z,14.56
2018-04-11T18:45:48.949Z,14.55
2018-04-11T18:48:16.419Z,14.57
2018-04-11T18:50:43.906Z,14.58
2018-04-11T18:53:11.419Z,14.60
2018-04-11T18:55:38.985Z,14.59
2018-04-11T18:58:06.470Z,14.56
2018-04-11T19:00:34.065Z,14.57
2018-04-11T19:03:01.469Z,14.58
2018-04-11T19:05:29.013Z,14.61
2018-04-11T19:07:56.491Z,14.59
2018-04-11T19:10:24.002Z,14.56
2018-04-11T19:12:51.506Z,14.55
2018-04-11T19:15:18.986Z,14.57
2018-04-11T19:17:46.466Z,14.56
2018-04-11T19:20:13.941Z,14.54
2018-04-11T19:22:41.436Z,14.52
2018-04-11T19:25:09.058Z,14.50
2018-04-11T19:27:36.520Z,14.49
2018-04-11T19:30:03.992Z,14.48
2018-04-11T19:32:31.488Z,14.47
2018-04-11T19:34:58.995Z,14.49
2018-04-11T19:37:26.461Z,14.48
2018-04-11T19:39:53.930Z,14.47
2018-04-11T19:42:21.434Z,14.47
2018-04-11T19:44:48.890Z,14.46
2018-04-11T19:47:16.362Z,14.45
2018-04-11T19:49:43.840Z,14.43
2018-04-11T19:54:45.303Z,14.45
2018-04-11T19:57:12.885Z,14.45
2018-04-11T19:59:40.350Z,14.44
2018-04-11T20:02:07.848Z,14.44
2018-04-11T20:04:35.329Z,14.43
2018-04-11T20:07:02.809Z,14.44
2018-04-11T20:09:30.368Z,14.43
2018-04-11T20:11:57.928Z,14.41
2018-04-11T20:14:25.403Z,14.40
2018-04-11T20:16:52.894Z,14.38
2018-04-11T20:19:20.384Z,14.38
2018-04-11T20:21:47.861Z,14.35
2018-04-11T20:24:15.348Z,14.31
2018-04-11T20:26:42.870Z,14.30
2018-04-11T20:29:10.321Z,14.29
2018-04-11T20:31:37.782Z,14.30
2018-04-11T20:34:05.274Z,14.32
2018-04-11T20:36:32.748Z,14.30
2018-04-11T20:39:00.266Z,14.28
2018-04-11T20:41:27.760Z,14.26
2018-04-11T20:43:55.229Z,14.25
2018-04-11T20:46:22.688Z,14.24
2018-04-11T20:48:50.184Z,14.24
2018-04-11T20:51:17.646Z,14.26
2018-04-11T20:53:45.125Z,14.27
2018-04-11T20:56:12.671Z,14.28
2018-04-11T20:58:40.136Z,14.26
2018-04-11T21:01:07.609Z,14.24
2018-04-11T21:03:35.104Z,14.25
2018-04-11T21:06:02.585Z,14.27
2018-04-11T21:08:30.169Z,14.29
2018-04-11T21:10:57.764Z,14.28
2018-04-11T21:13:25.237Z,14.26
2018-04-11T21:15:52.702Z,14.24
2018-04-11T21:18:20.266Z,14.21
2018-04-11T21:20:47.701Z,14.21
2018-04-11T21:23:15.175Z,14.18
2018-04-11T21:25:42.718Z,14.20
2018-04-11T21:28:10.174Z,14.17
2018-04-11T21:30:37.657Z,14.16
2018-04-11T21:33:05.149Z,14.15
2018-04-11T21:35:32.625Z,14.14
2018-04-11T21:38:00.101Z,14.10
2018-04-11T21:40:27.603Z,14.07
2018-04-11T21:42:55.092Z,14.04
2018-04-11T21:45:22.560Z,14.03
2018-04-11T21:47:50.185Z,14.01
2018-04-11T21:50:17.757Z,13.99
2018-04-11T21:52:45.334Z,13.96
2018-04-11T21:55:12.884Z,13.94
2018-04-11T21:57:40.384Z,13.91
2018-04-11T22:00:07.860Z,13.89
2018-04-11T22:02:35.355Z,13.86
2018-04-11T22:05:02.822Z,13.90
2018-04-11T22:07:30.314Z,13.88
2018-04-11T22:09:57.854Z,13.86
2018-04-11T22:12:25.324Z,13.77
2018-04-11T22:14:52.834Z,13.74
2018-04-11T22:17:20.338Z,13.69
2018-04-11T22:19:47.860Z,13.66
2018-04-11T22:22:15.353Z,13.62
2018-04-11T22:24:42.838Z,13.59
2018-04-11T22:27:10.313Z,13.56
2018-04-11T22:29:37.886Z,13.55
2018-04-11T22:32:05.442Z,13.52
2018-04-11T22:34:32.908Z,13.50
2018-04-11T22:37:00.408Z,13.48
2018-04-11T22:39:27.886Z,13.45
2018-04-11T22:41:55.361Z,13.44
2018-04-11T22:44:22.856Z,13.39
2018-04-11T22:46:50.329Z,13.37
2018-04-11T22:49:17.844Z,13.34
2018-04-11T22:51:45.332Z,13.30
2018-04-11T22:54:12.797Z,13.28
2018-04-11T22:56:40.261Z,13.25
2018-04-11T22:59:07.856Z,13.23
2018-04-11T23:01:35.348Z,13.21
2018-04-11T23:04:02.949Z,13.21
2018-04-11T23:06:30.477Z,13.17
2018-04-11T23:08:57.944Z,13.15
2018-04-11T23:11:25.413Z,13.14
2018-04-11T23:13:52.992Z,13.11
2018-04-11T23:16:20.484Z,13.07
2018-04-11T23:18:47.967Z,13.04
2018-04-11T23:21:15.428Z,13.00
2018-04-11T23:23:42.903Z,12.97
2018-04-11T23:26:10.388Z,12.94
2018-04-11T23:28:37.884Z,12.92
2018-04-11T23:31:05.384Z,12.91
2018-04-11T23:33:32.844Z,12.90
2018-04-11T23:36:00.352Z,12.89
2018-04-11T23:38:27.852Z,12.87
2018-04-11T23:40:55.327Z,12.85
2018-04-11T23:43:22.794Z,12.82
2018-04-11T23:45:50.386Z,12.78
2018-04-11T23:48:17.853Z,12.76
2018-04-11T23:50:45.321Z,12.71
2018-04-11T23:53:12.869Z,12.71
2018-04-11T23:55:40.353Z,12.72
2018-04-11T23:58:07.922Z,12.67
